Time;durP1;ratioP1;P1;durP2;ratioP2;P2;SDS_P1;SDS_P2;PMS_P1;PMS_P2;Temp;Humidity;BMP_temperature;BMP_pressure;BME280_temperature;BME280_humidity;BME280_pressure;Samples;Min_cycle;Max_cycle;Signal;HPM_P1;HPM_P2
2023/07/18 00:19:17;;;;;;;20.00;2.97;;;14.90;99.90;;;;;;1911240;74;25600;-90
2023/07/18 00:25:42;;;;;;;6.17;2.43;;;14.90;99.90;;;;;;1947834;72;28155;-91
2023/07/18 00:29:26;;;;;;;9.40;2.40;;;14.80;99.90;;;;;;1888656;73;25397;-91
2023/07/18 00:32:50;;;;;;;14.83;2.30;;;14.80;99.90;;;;;;1923994;73;25211;-90
2023/07/18 00:36:27;;;;;;;9.43;2.63;;;14.80;99.90;;;;;;1937101;73;25186;-90
2023/07/18 00:57:40;;;;;;;12.10;2.50;;;14.80;99.90;;;;;;1923460;73;27747;-90
2023/07/18 01:57:55;;;;;;;6.33;1.90;;;14.50;99.90;;;;;;1920142;73;25184;-91
2023/07/18 02:39:30;;;;;;;1.80;0.87;;;14.40;99.90;;;;;;1955123;72;27819;-90
2023/07/18 04:48:43;;;;;;;3.33;1.43;;;17.50;99.90;;;;;;1788981;77;25244;-92
2023/07/18 05:42:34;;;;;;;1.63;1.13;;;17.80;99.90;;;;;;1942512;72;28384;-91
2023/07/18 06:07:07;;;;;;;9.17;4.17;;;18.20;99.90;;;;;;1911300;73;29589;-92
2023/07/18 06:14:43;;;;;;;5.57;2.37;;;18.50;99.90;;;;;;1840711;76;25870;-93
2023/07/18 06:18:28;;;;;;;5.73;2.87;;;18.70;99.90;;;;;;1863232;75;25220;-93
2023/07/18 06:26:01;;;;;;;7.50;5.00;;;17.60;99.90;;;;;;1845338;76;25382;-93
2023/07/18 06:29:46;;;;;;;3.07;1.30;;;17.30;99.90;;;;;;1863076;76;25347;-93
2023/07/18 07:34:14;;;;;;;3.27;1.10;;;18.50;99.90;;;;;;1912703;72;27091;-91
2023/07/18 08:41:04;;;;;;;5.47;3.13;;;18.20;99.90;;;;;;1883265;75;29484;-91
2023/07/18 09:53:41;;;;;;;0.97;0.97;;;19.40;99.90;;;;;;1881052;72;32715;-91
2023/07/18 09:57:11;;;;;;;1.17;0.90;;;20.90;99.90;;;;;;1911154;74;25755;-91
2023/07/18 10:00:37;;;;;;;2.77;2.00;;;20.50;99.90;;;;;;1876060;74;25702;-91
2023/07/18 10:26:30;;;;;;;2.53;1.20;;;20.50;99.90;;;;;;1935173;73;25349;-91
2023/07/18 11:03:07;;;;;;;1.40;0.50;;;20.10;99.90;;;;;;1763227;80;25246;-92
2023/07/18 11:17:17;;;;;;;0.97;0.70;;;19.90;99.90;;;;;;1918145;72;26446;-91
2023/07/18 11:20:44;;;;;;;1.17;0.67;;;20.20;99.90;;;;;;1941129;73;25654;-92
2023/07/18 11:28:01;;;;;;;2.10;0.87;;;19.70;99.90;;;;;;1927832;73;25736;-91
2023/07/18 11:31:51;;;;;;;0.87;0.70;;;19.30;99.90;;;;;;1934130;72;25613;-92
2023/07/18 11:49:32;;;;;;;0.63;0.63;;;20.70;99.90;;;;;;1812217;76;27589;-91
2023/07/18 11:59:18;;;;;;;1.27;0.73;;;20.00;99.90;;;;;;1940149;72;27134;-90
2023/07/18 12:06:27;;;;;;;5.23;0.97;;;20.10;99.90;;;;;;1968396;72;27116;-93
2023/07/18 12:47:57;;;;;;;1.53;0.70;;;21.30;99.90;;;;;;1962122;72;27354;-92
2023/07/18 12:54:19;;;;;;;1.93;0.60;;;21.30;99.90;;;;;;1926536;74;28272;-90
2023/07/18 13:43:02;;;;;;;2.30;0.73;;;21.40;99.90;;;;;;2009649;71;27040;-91
2023/07/18 13:45:55;;;;;;;1.80;0.70;;;21.60;99.90;;;;;;1938568;72;25234;-91
2023/07/18 13:48:44;;;;;;;2.10;0.77;;;21.40;99.90;;;;;;1972780;71;25308;-91
2023/07/18 13:57:24;;;;;;;0.70;0.57;;;21.40;99.90;;;;;;1949081;71;26558;-90
2023/07/18 14:00:16;;;;;;;1.23;0.60;;;21.40;99.90;;;;;;1976856;71;25841;-91
2023/07/18 14:20:56;;;;;;;0.57;0.50;;;20.70;99.90;;;;;;1965710;71;28182;-91
2023/07/18 14:23:47;;;;;;;1.60;0.70;;;20.60;99.90;;;;;;1913053;75;25541;-91
2023/07/18 14:26:36;;;;;;;0.87;0.50;;;20.80;99.90;;;;;;1912968;75;25919;-91
2023/07/18 14:29:26;;;;;;;1.90;0.60;;;20.90;99.90;;;;;;1907957;74;25293;-91
2023/07/18 14:35:15;;;;;;;2.97;0.50;;;20.80;99.90;;;;;;1942581;72;27517;-91
2023/07/18 14:38:45;;;;;;;0.93;0.63;;;20.90;99.90;;;;;;1942343;73;25645;-91
2023/07/18 14:41:35;;;;;;;3.30;0.70;;;20.90;99.90;;;;;;1920777;73;25632;-91
2023/07/18 14:44:25;;;;;;;1.20;0.60;;;20.80;99.90;;;;;;1831954;77;25348;-91
2023/07/18 14:53:00;;;;;;;1.83;0.80;;;21.00;99.90;;;;;;1986713;71;26396;-91
2023/07/18 14:55:55;;;;;;;1.43;0.50;;;21.10;99.90;;;;;;2032114;70;25222;-90
2023/07/18 14:58:50;;;;;;;2.30;0.77;;;21.00;99.90;;;;;;2009284;70;25188;-91
2023/07/18 15:01:41;;;;;;;2.70;0.70;;;20.70;99.90;;;;;;2009837;70;25700;-91
2023/07/18 15:04:33;;;;;;;2.10;0.90;;;20.80;99.90;;;;;;2015186;70;25162;-91
2023/07/18 15:11:14;;;;;;;6.03;0.63;;;20.90;99.90;;;;;;2009949;70;25348;-91
2023/07/18 15:18:22;;;;;;;0.40;0.40;;;20.50;99.90;;;;;;2027494;70;25226;-91
2023/07/18 15:24:19;;;;;;;3.17;0.80;;;20.60;99.90;;;;;;1945599;72;27143;-91
2023/07/18 15:32:55;;;;;;;1.60;0.57;;;20.60;99.90;;;;;;1986208;71;28097;-91
2023/07/18 15:36:10;;;;;;;1.67;0.67;;;20.60;99.90;;;;;;1964232;72;25166;-91
2023/07/18 15:39:04;;;;;;;2.37;0.60;;;20.90;99.90;;;;;;2049325;69;25964;-91
2023/07/18 15:42:41;;;;;;;1.37;0.80;;;21.00;99.90;;;;;;2019383;69;25333;-91
2023/07/18 16:50:32;;;;;;;1.80;0.80;;;20.00;99.90;;;;;;2000047;71;26422;-90
2023/07/18 16:53:21;;;;;;;3.00;0.97;;;20.00;99.90;;;;;;1998749;70;25242;-91
2023/07/18 16:56:11;;;;;;;2.90;0.80;;;19.90;99.90;;;;;;2001031;70;25232;-91
2023/07/18 16:59:00;;;;;;;3.40;1.00;;;19.90;99.90;;;;;;1983158;70;25846;-92
2023/07/18 17:01:49;;;;;;;2.70;1.00;;;19.90;99.90;;;;;;2000828;70;25218;-91
2023/07/18 17:04:39;;;;;;;2.70;0.93;;;19.70;99.90;;;;;;2038408;69;25217;-91
2023/07/18 17:07:28;;;;;;;2.73;0.87;;;19.70;99.90;;;;;;2021759;69;25196;-90
2023/07/18 17:10:17;;;;;;;5.03;1.00;;;19.60;99.90;;;;;;2018342;69;25211;-90
2023/07/18 17:13:07;;;;;;;2.77;0.90;;;19.50;99.90;;;;;;2027440;70;25238;-91
2023/07/18 17:15:56;;;;;;;2.33;0.93;;;19.50;99.90;;;;;;2030315;70;25278;-91
2023/07/18 17:18:45;;;;;;;3.50;1.20;;;19.50;99.90;;;;;;1983229;70;25288;-90
2023/07/18 17:21:34;;;;;;;0.87;0.80;;;19.40;99.90;;;;;;2044610;69;25244;-91
2023/07/18 17:24:22;;;;;;;5.97;1.30;;;19.30;99.90;;;;;;2028791;69;25625;-90
2023/07/18 17:27:10;;;;;;;2.50;1.00;;;19.20;99.90;;;;;;1976628;71;25157;-90
2023/07/18 17:30:00;;;;;;;5.70;0.97;;;19.20;99.90;;;;;;1975520;72;25223;-90
2023/07/18 17:32:49;;;;;;;4.03;1.10;;;19.20;99.90;;;;;;1998474;70;25297;-90
2023/07/18 17:35:38;;;;;;;3.70;0.97;;;19.20;99.90;;;;;;1982913;71;25241;-90
2023/07/18 17:38:29;;;;;;;4.37;0.87;;;19.10;99.90;;;;;;1988315;71;25276;-90
2023/07/18 17:44:04;;;;;;;6.50;1.13;;;18.80;99.90;;;;;;1936813;72;27047;-90
2023/07/18 17:46:53;;;;;;;2.67;0.80;;;18.60;99.90;;;;;;1892970;75;25606;-90
2023/07/18 17:49:42;;;;;;;6.17;0.90;;;18.60;99.90;;;;;;1899401;73;25643;-90
2023/07/18 17:52:30;;;;;;;3.13;1.13;;;18.60;99.90;;;;;;1894791;75;25716;-89
2023/07/18 17:58:06;;;;;;;3.30;1.13;;;18.40;99.90;;;;;;1932425;74;27126;-89
2023/07/18 18:00:56;;;;;;;5.37;1.33;;;18.30;99.90;;;;;;1886031;75;25278;-90
2023/07/18 18:03:45;;;;;;;1.73;0.80;;;18.30;99.90;;;;;;1887934;75;25319;-90
2023/07/18 18:06:33;;;;;;;3.67;0.90;;;18.30;99.90;;;;;;1881255;75;25652;-89
2023/07/18 18:09:22;;;;;;;5.63;1.10;;;18.20;99.90;;;;;;1876214;75;25373;-89
2023/07/18 18:12:11;;;;;;;4.90;1.00;;;18.20;99.90;;;;;;1877105;75;25812;-90
2023/07/18 18:15:00;;;;;;;3.50;1.00;;;18.20;99.90;;;;;;1890970;75;25222;-89
2023/07/18 18:17:49;;;;;;;7.40;1.07;;;18.20;99.90;;;;;;1831356;77;25367;-90
2023/07/18 18:20:39;;;;;;;7.83;1.20;;;18.30;99.90;;;;;;1894116;75;25200;-89
2023/07/18 18:23:28;;;;;;;4.07;0.90;;;18.10;99.90;;;;;;1891024;75;25668;-90
2023/07/18 18:29:20;;;;;;;3.23;0.93;;;18.00;99.90;;;;;;1956314;72;27430;-89
2023/07/18 18:32:09;;;;;;;3.93;1.07;;;17.90;99.90;;;;;;1929587;73;25360;-89
2023/07/18 18:34:58;;;;;;;6.47;1.07;;;17.80;99.90;;;;;;1935602;73;25216;-89
2023/07/18 18:37:47;;;;;;;5.47;0.93;;;17.80;99.90;;;;;;1924105;73;25288;-89
2023/07/18 18:40:36;;;;;;;4.57;1.20;;;17.80;99.90;;;;;;1930154;73;25233;-89
2023/07/18 19:08:55;;;;;;;3.53;1.00;;;17.50;99.90;;;;;;1942063;72;27010;-89
2023/07/18 19:15:03;;;;;;;3.87;1.10;;;17.50;99.90;;;;;;1974652;71;26372;-89
2023/07/18 19:20:36;;;;;;;3.00;1.00;;;17.20;99.90;;;;;;1933724;72;27103;-90
2023/07/18 19:23:26;;;;;;;5.37;1.33;;;17.00;99.90;;;;;;1906091;75;25212;-90
2023/07/18 19:26:14;;;;;;;3.20;1.20;;;17.00;99.90;;;;;;1891130;75;25231;-90
2023/07/18 19:29:04;;;;;;;6.00;1.00;;;16.90;99.90;;;;;;1892267;75;25179;-90
2023/07/18 19:31:52;;;;;;;5.03;1.50;;;16.80;99.90;;;;;;1900055;75;25209;-90
2023/07/18 19:34:43;;;;;;;7.60;1.30;;;16.70;99.90;;;;;;1913863;75;25225;-90
2023/07/18 19:37:31;;;;;;;5.93;1.10;;;16.60;99.90;;;;;;1893199;75;25693;-90
2023/07/18 19:40:20;;;;;;;5.50;1.53;;;16.60;99.90;;;;;;1897962;75;25315;-89
2023/07/18 19:45:48;;;;;;;4.17;1.40;;;16.50;99.90;;;;;;1853736;75;26961;-90
2023/07/18 19:49:40;;;;;;;5.10;1.00;;;16.40;99.90;;;;;;1795968;79;25318;-91
2023/07/18 19:52:29;;;;;;;5.13;1.87;;;16.40;99.90;;;;;;1796705;79;25722;-89
2023/07/18 19:55:18;;;;;;;4.80;1.50;;;16.30;99.90;;;;;;1802707;79;25192;-90
2023/07/18 19:58:07;;;;;;;9.40;1.60;;;16.30;99.90;;;;;;1769733;79;26543;-89
2023/07/18 20:00:55;;;;;;;7.57;1.57;;;16.20;99.90;;;;;;1768324;80;25308;-89
2023/07/18 20:03:44;;;;;;;4.63;1.17;;;16.20;99.90;;;;;;1770528;81;25291;-89
2023/07/18 20:06:37;;;;;;;4.03;1.40;;;16.10;99.90;;;;;;1745758;82;25338;-90
2023/07/18 20:17:56;;;;;;;8.83;1.50;;;15.90;99.90;;;;;;1769223;79;25336;-90
2023/07/18 20:46:13;;;;;;;9.93;1.50;;;15.40;99.90;;;;;;1929803;73;27047;-88
2023/07/18 20:49:02;;;;;;;10.70;1.97;;;15.40;99.90;;;;;;1855131;77;25269;-88
2023/07/18 20:51:51;;;;;;;6.90;1.63;;;15.40;99.90;;;;;;1885387;74;25286;-88
2023/07/18 20:54:40;;;;;;;8.83;1.53;;;15.40;99.90;;;;;;1916920;74;25163;-88
2023/07/18 20:57:28;;;;;;;11.23;1.90;;;15.30;99.90;;;;;;1896942;74;25218;-88
2023/07/18 21:00:17;;;;;;;5.87;1.20;;;15.30;99.90;;;;;;1898779;74;25588;-88
2023/07/18 21:03:06;;;;;;;13.03;2.00;;;15.30;99.90;;;;;;1910909;74;25344;-88
2023/07/18 21:05:55;;;;;;;9.43;1.83;;;15.30;99.90;;;;;;1892948;74;25292;-87
2023/07/18 21:08:45;;;;;;;9.30;2.00;;;15.20;99.90;;;;;;1893397;74;25237;-87
2023/07/18 21:11:34;;;;;;;10.83;1.60;;;15.20;99.90;;;;;;1887965;75;25252;-88
2023/07/18 21:14:24;;;;;;;11.30;1.90;;;15.20;99.90;;;;;;1903762;74;25233;-88
2023/07/18 21:17:12;;;;;;;9.83;1.67;;;15.20;99.90;;;;;;1898838;74;25227;-88
2023/07/18 21:20:01;;;;;;;7.47;1.60;;;15.10;99.90;;;;;;1886166;74;25504;-88
2023/07/18 21:22:50;;;;;;;11.23;1.93;;;15.10;99.90;;;;;;1889923;74;25270;-88
2023/07/18 21:28:20;;;;;;;10.50;1.70;;;15.00;99.90;;;;;;1928010;72;27007;-87
2023/07/18 21:33:49;;;;;;;17.77;1.80;;;14.90;99.90;;;;;;1945304;72;27002;-87
2023/07/18 21:36:38;;;;;;;11.67;2.00;;;14.90;99.90;;;;;;1904393;74;25234;-87
2023/07/18 21:39:27;;;;;;;13.50;2.20;;;14.80;99.90;;;;;;1898229;75;25233;-87
2023/07/18 21:42:15;;;;;;;17.70;2.00;;;14.80;99.90;;;;;;1886234;75;25259;-87
2023/07/18 21:45:05;;;;;;;13.40;2.00;;;14.80;99.90;;;;;;1874183;75;25932;-87
2023/07/18 21:47:54;;;;;;;22.27;2.33;;;14.80;99.90;;;;;;1877430;75;25320;-87
2023/07/18 21:53:28;;;;;;;12.00;1.97;;;14.60;99.90;;;;;;1947720;72;27071;-88
2023/07/18 21:56:16;;;;;;;11.80;2.03;;;14.60;99.90;;;;;;1930788;73;25277;-88
2023/07/18 22:01:47;;;;;;;11.37;2.17;;;14.60;99.90;;;;;;1934239;72;26997;-87
2023/07/18 22:07:23;;;;;;;11.60;2.17;;;14.60;99.90;;;;;;1944268;72;26889;-87
2023/07/18 22:10:14;;;;;;;17.77;2.27;;;14.60;99.90;;;;;;1924316;73;25342;-88
2023/07/18 22:13:03;;;;;;;15.53;2.03;;;14.60;99.90;;;;;;1928426;73;25215;-88
2023/07/18 22:15:51;;;;;;;11.57;2.00;;;14.60;99.90;;;;;;1932948;73;25245;-87
2023/07/18 22:18:40;;;;;;;12.73;2.53;;;14.50;99.90;;;;;;1939489;73;25247;-87
2023/07/18 22:21:29;;;;;;;19.10;2.40;;;14.50;99.90;;;;;;1929338;73;25209;-88
2023/07/18 22:24:17;;;;;;;11.20;1.80;;;14.40;99.90;;;;;;1885188;75;25693;-88
2023/07/18 22:29:46;;;;;;;19.80;2.10;;;14.30;99.90;;;;;;1931707;72;27507;-88
2023/07/18 22:35:18;;;;;;;17.00;2.50;;;14.30;99.90;;;;;;1941948;72;27014;-88
2023/07/18 22:38:07;;;;;;;12.93;2.30;;;14.30;99.90;;;;;;1920235;73;25208;-88
2023/07/18 22:43:37;;;;;;;18.97;2.57;;;14.30;99.90;;;;;;1934677;72;27056;-88
2023/07/18 22:46:26;;;;;;;22.80;2.67;;;14.30;99.90;;;;;;1910514;74;25872;-88
2023/07/18 22:49:15;;;;;;;19.40;2.40;;;14.20;99.90;;;;;;1904430;73;25186;-88
2023/07/18 22:52:04;;;;;;;14.37;3.00;;;14.20;99.90;;;;;;1897248;75;25703;-88
2023/07/18 22:54:52;;;;;;;14.47;2.67;;;14.20;99.90;;;;;;1896710;75;25308;-88
2023/07/18 22:57:42;;;;;;;17.77;2.63;;;14.10;99.90;;;;;;1861243;75;25298;-88
2023/07/18 23:00:30;;;;;;;17.27;3.07;;;14.20;99.90;;;;;;1895159;73;25304;-88
2023/07/18 23:06:00;;;;;;;23.60;2.77;;;14.10;99.90;;;;;;1951688;72;27412;-88
2023/07/18 23:08:50;;;;;;;12.40;2.37;;;14.10;99.90;;;;;;1940902;72;25247;-88
2023/07/18 23:11:38;;;;;;;16.43;2.33;;;14.10;99.90;;;;;;1940271;73;25740;-88
2023/07/18 23:14:27;;;;;;;22.63;3.47;;;14.00;99.90;;;;;;1934494;73;25725;-88
2023/07/18 23:17:16;;;;;;;16.47;2.13;;;14.10;99.90;;;;;;1929838;72;25732;-88
2023/07/18 23:22:44;;;;;;;20.20;2.70;;;14.00;99.90;;;;;;1920885;72;27069;-88
2023/07/18 23:25:32;;;;;;;15.27;2.43;;;14.00;99.90;;;;;;1919849;73;25210;-87
2023/07/18 23:28:21;;;;;;;17.40;2.50;;;14.00;99.90;;;;;;1926001;73;25728;-87
2023/07/18 23:31:09;;;;;;;14.87;2.70;;;14.00;99.90;;;;;;1924961;73;25712;-87
2023/07/18 23:33:58;;;;;;;16.07;2.20;;;14.00;99.90;;;;;;1913725;73;25238;-87
2023/07/18 23:36:47;;;;;;;18.07;2.60;;;14.00;99.90;;;;;;1916240;73;25217;-87
2023/07/18 23:39:35;;;;;;;13.40;2.30;;;13.90;99.90;;;;;;1898289;73;25227;-87
2023/07/18 23:42:24;;;;;;;25.30;2.40;;;13.90;99.90;;;;;;1911868;73;25287;-87
2023/07/18 23:45:13;;;;;;;20.67;3.00;;;13.90;99.90;;;;;;1887031;74;25760;-88
2023/07/18 23:48:01;;;;;;;14.23;2.33;;;13.80;99.90;;;;;;1907034;73;25264;-87
2023/07/18 23:50:50;;;;;;;19.10;2.60;;;13.80;99.90;;;;;;1899298;75;26081;-87
2023/07/18 23:53:38;;;;;;;13.10;2.53;;;13.80;99.90;;;;;;1898543;75;25244;-87
2023/07/18 23:59:11;;;;;;;17.47;2.53;;;13.80;99.90;;;;;;1935016;72;27093;-87
